LBGO

Gorna Oryahovitsa Airport

Gorna Oryahovitsa, Bulgaria
TAF LBGO 212300Z 2200/2224 09010KT 9999 OVC020 TEMPO 2203/2207 3000 BR OVC010 BECMG 2208/2210 15012KT
Issued Valid From Valid To
Jan-21 @ 23:00 UTC
(an hour ago)
Jan-22 @ 00:00 UTC
(23 minutes ago)
Jan-23 @ 00:00 UTC
(in 24 hours)
Jan-22 @ 00:00 to Jan-22 @ 08:00
TAF LBGO 212300Z 2200/2224 09010KT 9999 OVC020
Wind Visibility Clouds
90° at 10 knots 10,000+ meters
  • Overcast at 2,000' AGL
Temporary Jan-22 @ 03:00 to Jan-22 @ 07:00
TEMPO 2203/2207 3000 BR OVC010
Visibility Clouds Conditions
2,993 meters
  • Overcast at 1,000' AGL
  • Mist
Becoming Jan-22 @ 08:00 to Jan-23 @ 00:00
BECMG 2208/2210 15012KT
Wind Visibility Clouds
150° at 12 knots 10,000+ meters
  • Overcast at 2,000' AGL
TAF LBGO 212300Z 2200/2224 09010KT 9999 OVC020 TEMPO 2203/2207 3000 BR OVC010 BECMG 2208/2210 15012KT
Issued Jan-21 @ 23:00 UTC
(an hour ago)
Valid From Jan-22 @ 00:00 UTC
(23 minutes ago)
Valid To Jan-23 @ 00:00 UTC
(in 24 hours)
Jan-22 @ 00:00 - Jan-22 @ 08:00
Wind Visibility
90° at 10 knots 10,000+ meters
Clouds
  • Overcast at 2,000' AGL
Temporary Jan-22 @ 03:00 - Jan-22 @ 07:00
Clouds
  • Overcast at 1,000' AGL
Conditions
  • Mist
Becoming Jan-22 @ 08:00 - Jan-23 @ 00:00
Wind Visibility
150° at 12 knots 10,000+ meters
Clouds
  • Overcast at 2,000' AGL